sensor_id;sensor_type;location;lat;lon;timestamp;P1;durP1;ratioP1;P2;durP2;ratioP2
6135;SDS011;24008;42.664;23.372;2024-02-14T00:00:49;12.10;;;8.10;;
6135;SDS011;24008;42.664;23.372;2024-02-14T00:03:16;11.77;;;8.27;;
6135;SDS011;24008;42.664;23.372;2024-02-14T00:05:43;10.53;;;8.07;;
6135;SDS011;24008;42.664;23.372;2024-02-14T00:08:10;11.23;;;7.80;;
6135;SDS011;24008;42.664;23.372;2024-02-14T00:10:38;10.27;;;7.93;;
6135;SDS011;24008;42.664;23.372;2024-02-14T00:13:07;11.43;;;7.97;;
6135;SDS011;24008;42.664;23.372;2024-02-14T00:15:34;13.00;;;8.33;;
6135;SDS011;24008;42.664;23.372;2024-02-14T00:18:01;11.40;;;8.00;;
6135;SDS011;24008;42.664;23.372;2024-02-14T00:20:28;12.07;;;8.40;;
6135;SDS011;24008;42.664;23.372;2024-02-14T00:22:55;11.53;;;8.17;;
6135;SDS011;24008;42.664;23.372;2024-02-14T00:25:21;11.53;;;8.20;;
6135;SDS011;24008;42.664;23.372;2024-02-14T00:27:48;11.43;;;8.20;;
6135;SDS011;24008;42.664;23.372;2024-02-14T00:30:16;13.03;;;8.83;;
6135;SDS011;24008;42.664;23.372;2024-02-14T00:32:43;12.50;;;8.90;;
6135;SDS011;24008;42.664;23.372;2024-02-14T00:35:09;11.67;;;8.30;;
6135;SDS011;24008;42.664;23.372;2024-02-14T00:37:36;11.17;;;8.27;;
6135;SDS011;24008;42.664;23.372;2024-02-14T00:40:03;15.50;;;8.90;;
6135;SDS011;24008;42.664;23.372;2024-02-14T00:42:31;13.03;;;8.37;;
6135;SDS011;24008;42.664;23.372;2024-02-14T00:44:57;11.83;;;8.50;;
6135;SDS011;24008;42.664;23.372;2024-02-14T00:47:25;13.27;;;8.33;;
6135;SDS011;24008;42.664;23.372;2024-02-14T00:49:52;14.13;;;9.13;;
6135;SDS011;24008;42.664;23.372;2024-02-14T00:52:26;12.47;;;8.53;;
6135;SDS011;24008;42.664;23.372;2024-02-14T00:55:32;12.70;;;8.47;;
6135;SDS011;24008;42.664;23.372;2024-02-14T00:58:02;12.47;;;8.87;;
6135;SDS011;24008;42.664;23.372;2024-02-14T01:00:32;12.60;;;8.43;;
6135;SDS011;24008;42.664;23.372;2024-02-14T01:03:00;12.90;;;8.90;;
6135;SDS011;24008;42.664;23.372;2024-02-14T01:05:29;11.50;;;8.10;;
6135;SDS011;24008;42.664;23.372;2024-02-14T01:07:58;12.17;;;8.00;;
6135;SDS011;24008;42.664;23.372;2024-02-14T01:10:27;12.53;;;8.77;;
6135;SDS011;24008;42.664;23.372;2024-02-14T01:12:53;12.30;;;9.27;;
6135;SDS011;24008;42.664;23.372;2024-02-14T01:15:20;12.60;;;8.63;;
6135;SDS011;24008;42.664;23.372;2024-02-14T01:17:47;12.87;;;9.07;;
6135;SDS011;24008;42.664;23.372;2024-02-14T01:20:18;14.57;;;8.87;;
6135;SDS011;24008;42.664;23.372;2024-02-14T01:22:45;13.77;;;9.53;;
6135;SDS011;24008;42.664;23.372;2024-02-14T01:25:11;13.00;;;9.47;;
6135;SDS011;24008;42.664;23.372;2024-02-14T01:27:38;13.60;;;9.47;;
6135;SDS011;24008;42.664;23.372;2024-02-14T01:30:05;13.90;;;9.37;;
6135;SDS011;24008;42.664;23.372;2024-02-14T01:32:33;12.80;;;8.90;;
6135;SDS011;24008;42.664;23.372;2024-02-14T01:35:00;12.87;;;9.27;;
6135;SDS011;24008;42.664;23.372;2024-02-14T01:37:28;14.47;;;9.57;;
6135;SDS011;24008;42.664;23.372;2024-02-14T01:39:55;13.60;;;8.93;;
6135;SDS011;24008;42.664;23.372;2024-02-14T01:42:22;14.87;;;9.57;;
6135;SDS011;24008;42.664;23.372;2024-02-14T01:44:48;14.60;;;10.10;;
6135;SDS011;24008;42.664;23.372;2024-02-14T01:47:15;13.77;;;9.40;;
6135;SDS011;24008;42.664;23.372;2024-02-14T01:49:43;16.77;;;10.17;;
6135;SDS011;24008;42.664;23.372;2024-02-14T01:52:10;16.10;;;10.57;;
6135;SDS011;24008;42.664;23.372;2024-02-14T01:54:39;14.50;;;10.17;;
6135;SDS011;24008;42.664;23.372;2024-02-14T01:57:06;13.40;;;9.73;;
6135;SDS011;24008;42.664;23.372;2024-02-14T01:59:35;16.33;;;10.10;;
6135;SDS011;24008;42.664;23.372;2024-02-14T02:02:02;14.60;;;9.83;;
6135;SDS011;24008;42.664;23.372;2024-02-14T02:04:32;16.07;;;10.07;;
6135;SDS011;24008;42.664;23.372;2024-02-14T02:07:08;16.43;;;9.60;;
6135;SDS011;24008;42.664;23.372;2024-02-14T02:09:35;15.53;;;10.63;;
6135;SDS011;24008;42.664;23.372;2024-02-14T02:12:03;14.43;;;9.70;;
6135;SDS011;24008;42.664;23.372;2024-02-14T02:14:32;14.70;;;9.77;;
6135;SDS011;24008;42.664;23.372;2024-02-14T02:16:59;13.70;;;9.80;;
6135;SDS011;24008;42.664;23.372;2024-02-14T02:19:27;16.23;;;9.93;;
6135;SDS011;24008;42.664;23.372;2024-02-14T02:21:54;18.13;;;10.77;;
6135;SDS011;24008;42.664;23.372;2024-02-14T02:24:22;16.27;;;10.17;;
6135;SDS011;24008;42.664;23.372;2024-02-14T02:26:48;14.03;;;9.80;;
6135;SDS011;24008;42.664;23.372;2024-02-14T02:29:15;15.60;;;10.37;;
6135;SDS011;24008;42.664;23.372;2024-02-14T02:31:44;18.03;;;10.43;;
6135;SDS011;24008;42.664;23.372;2024-02-14T02:34:11;15.57;;;10.37;;
6135;SDS011;24008;42.664;23.372;2024-02-14T02:36:38;15.77;;;9.43;;
6135;SDS011;24008;42.664;23.372;2024-02-14T02:39:04;16.17;;;10.20;;
6135;SDS011;24008;42.664;23.372;2024-02-14T02:41:33;14.50;;;9.93;;
6135;SDS011;24008;42.664;23.372;2024-02-14T02:43:59;15.03;;;10.40;;
6135;SDS011;24008;42.664;23.372;2024-02-14T02:46:26;13.93;;;10.20;;
6135;SDS011;24008;42.664;23.372;2024-02-14T02:48:54;14.50;;;9.67;;
6135;SDS011;24008;42.664;23.372;2024-02-14T02:51:22;14.33;;;9.90;;
6135;SDS011;24008;42.664;23.372;2024-02-14T02:53:48;15.57;;;10.00;;
6135;SDS011;24008;42.664;23.372;2024-02-14T02:56:17;14.93;;;9.97;;
6135;SDS011;24008;42.664;23.372;2024-02-14T02:58:45;18.20;;;10.07;;
6135;SDS011;24008;42.664;23.372;2024-02-14T03:01:13;14.83;;;10.47;;
6135;SDS011;24008;42.664;23.372;2024-02-14T03:03:40;19.13;;;10.83;;
6135;SDS011;24008;42.664;23.372;2024-02-14T03:06:07;17.67;;;9.83;;
6135;SDS011;24008;42.664;23.372;2024-02-14T03:08:34;15.83;;;10.83;;
6135;SDS011;24008;42.664;23.372;2024-02-14T03:11:04;14.93;;;10.63;;
6135;SDS011;24008;42.664;23.372;2024-02-14T03:13:31;15.67;;;10.27;;
6135;SDS011;24008;42.664;23.372;2024-02-14T03:15:59;17.43;;;10.80;;
6135;SDS011;24008;42.664;23.372;2024-02-14T03:18:26;15.17;;;10.83;;
6135;SDS011;24008;42.664;23.372;2024-02-14T03:20:52;16.57;;;11.47;;
6135;SDS011;24008;42.664;23.372;2024-02-14T03:23:19;16.33;;;10.57;;
6135;SDS011;24008;42.664;23.372;2024-02-14T03:25:47;14.70;;;9.83;;
6135;SDS011;24008;42.664;23.372;2024-02-14T03:28:14;15.70;;;10.53;;
6135;SDS011;24008;42.664;23.372;2024-02-14T03:30:41;17.43;;;11.13;;
6135;SDS011;24008;42.664;23.372;2024-02-14T03:33:09;16.43;;;10.90;;
6135;SDS011;24008;42.664;23.372;2024-02-14T03:35:35;16.33;;;10.23;;
6135;SDS011;24008;42.664;23.372;2024-02-14T03:38:02;17.80;;;10.80;;
6135;SDS011;24008;42.664;23.372;2024-02-14T03:40:29;15.90;;;11.37;;
6135;SDS011;24008;42.664;23.372;2024-02-14T03:42:56;17.17;;;10.67;;
6135;SDS011;24008;42.664;23.372;2024-02-14T03:45:23;15.87;;;11.40;;
6135;SDS011;24008;42.664;23.372;2024-02-14T03:47:50;16.90;;;11.00;;
6135;SDS011;24008;42.664;23.372;2024-02-14T03:50:18;16.07;;;10.87;;
6135;SDS011;24008;42.664;23.372;2024-02-14T03:52:44;16.80;;;10.90;;
6135;SDS011;24008;42.664;23.372;2024-02-14T03:55:11;16.67;;;11.07;;
6135;SDS011;24008;42.664;23.372;2024-02-14T03:57:39;17.53;;;11.27;;
6135;SDS011;24008;42.664;23.372;2024-02-14T04:00:07;16.03;;;10.70;;
6135;SDS011;24008;42.664;23.372;2024-02-14T04:02:35;15.50;;;10.37;;
6135;SDS011;24008;42.664;23.372;2024-02-14T04:05:02;15.47;;;10.83;;
6135;SDS011;24008;42.664;23.372;2024-02-14T04:07:30;16.73;;;10.93;;
6135;SDS011;24008;42.664;23.372;2024-02-14T04:09:57;17.03;;;11.20;;
6135;SDS011;24008;42.664;23.372;2024-02-14T04:12:23;17.20;;;11.37;;
6135;SDS011;24008;42.664;23.372;2024-02-14T04:14:50;16.80;;;11.93;;
6135;SDS011;24008;42.664;23.372;2024-02-14T04:17:17;19.70;;;12.13;;
6135;SDS011;24008;42.664;23.372;2024-02-14T04:19:43;18.73;;;12.07;;
6135;SDS011;24008;42.664;23.372;2024-02-14T04:22:10;17.57;;;11.93;;
6135;SDS011;24008;42.664;23.372;2024-02-14T04:24:38;17.60;;;11.53;;
6135;SDS011;24008;42.664;23.372;2024-02-14T04:27:05;18.47;;;12.20;;
6135;SDS011;24008;42.664;23.372;2024-02-14T04:29:32;19.17;;;11.80;;
6135;SDS011;24008;42.664;23.372;2024-02-14T04:32:00;17.87;;;11.97;;
6135;SDS011;24008;42.664;23.372;2024-02-14T04:34:27;19.77;;;12.47;;
6135;SDS011;24008;42.664;23.372;2024-02-14T04:36:55;16.93;;;11.30;;
6135;SDS011;24008;42.664;23.372;2024-02-14T04:39:21;20.40;;;12.00;;
6135;SDS011;24008;42.664;23.372;2024-02-14T04:41:50;19.93;;;12.93;;
6135;SDS011;24008;42.664;23.372;2024-02-14T04:44:17;19.10;;;11.90;;
6135;SDS011;24008;42.664;23.372;2024-02-14T04:46:43;18.47;;;12.27;;
6135;SDS011;24008;42.664;23.372;2024-02-14T04:49:10;21.60;;;14.13;;
6135;SDS011;24008;42.664;23.372;2024-02-14T04:51:39;21.27;;;13.00;;
6135;SDS011;24008;42.664;23.372;2024-02-14T04:54:06;20.50;;;13.47;;
6135;SDS011;24008;42.664;23.372;2024-02-14T04:56:33;19.07;;;13.17;;
6135;SDS011;24008;42.664;23.372;2024-02-14T04:59:01;21.50;;;13.67;;
6135;SDS011;24008;42.664;23.372;2024-02-14T05:01:30;20.17;;;13.70;;
6135;SDS011;24008;42.664;23.372;2024-02-14T05:03:56;20.27;;;13.23;;
6135;SDS011;24008;42.664;23.372;2024-02-14T05:06:23;22.90;;;13.70;;
6135;SDS011;24008;42.664;23.372;2024-02-14T05:08:50;22.83;;;14.67;;
6135;SDS011;24008;42.664;23.372;2024-02-14T05:11:18;20.97;;;14.03;;
6135;SDS011;24008;42.664;23.372;2024-02-14T05:13:45;21.50;;;14.17;;
6135;SDS011;24008;42.664;23.372;2024-02-14T05:16:13;22.03;;;14.83;;
6135;SDS011;24008;42.664;23.372;2024-02-14T05:18:39;23.77;;;14.67;;
6135;SDS011;24008;42.664;23.372;2024-02-14T05:21:06;21.00;;;13.50;;
6135;SDS011;24008;42.664;23.372;2024-02-14T05:23:33;23.70;;;15.30;;
6135;SDS011;24008;42.664;23.372;2024-02-14T05:26:01;25.13;;;15.07;;
6135;SDS011;24008;42.664;23.372;2024-02-14T05:28:28;23.93;;;15.97;;
6135;SDS011;24008;42.664;23.372;2024-02-14T05:33:26;25.33;;;15.87;;
6135;SDS011;24008;42.664;23.372;2024-02-14T05:35:52;27.33;;;15.40;;
6135;SDS011;24008;42.664;23.372;2024-02-14T05:38:19;24.60;;;15.30;;
6135;SDS011;24008;42.664;23.372;2024-02-14T05:40:46;24.70;;;14.77;;
6135;SDS011;24008;42.664;23.372;2024-02-14T05:43:14;23.83;;;15.70;;
6135;SDS011;24008;42.664;23.372;2024-02-14T05:45:40;23.00;;;15.30;;
6135;SDS011;24008;42.664;23.372;2024-02-14T05:48:07;25.90;;;16.83;;
6135;SDS011;24008;42.664;23.372;2024-02-14T05:50:35;24.73;;;15.40;;
6135;SDS011;24008;42.664;23.372;2024-02-14T05:53:03;25.33;;;15.57;;
6135;SDS011;24008;42.664;23.372;2024-02-14T05:55:29;24.90;;;15.00;;
6135;SDS011;24008;42.664;23.372;2024-02-14T05:57:57;28.47;;;15.77;;
6135;SDS011;24008;42.664;23.372;2024-02-14T06:00:24;25.07;;;15.47;;
6135;SDS011;24008;42.664;23.372;2024-02-14T06:02:51;24.93;;;15.87;;
6135;SDS011;24008;42.664;23.372;2024-02-14T06:05:18;25.90;;;15.47;;
6135;SDS011;24008;42.664;23.372;2024-02-14T06:07:46;22.73;;;14.60;;
6135;SDS011;24008;42.664;23.372;2024-02-14T06:10:13;24.40;;;15.73;;
6135;SDS011;24008;42.664;23.372;2024-02-14T06:12:40;28.17;;;15.43;;
6135;SDS011;24008;42.664;23.372;2024-02-14T06:15:08;21.73;;;15.10;;
6135;SDS011;24008;42.664;23.372;2024-02-14T06:17:35;23.27;;;15.87;;
6135;SDS011;24008;42.664;23.372;2024-02-14T06:20:02;24.87;;;15.30;;
6135;SDS011;24008;42.664;23.372;2024-02-14T06:22:31;23.60;;;15.80;;
6135;SDS011;24008;42.664;23.372;2024-02-14T06:24:59;25.67;;;16.57;;
6135;SDS011;24008;42.664;23.372;2024-02-14T06:27:29;21.47;;;14.77;;
6135;SDS011;24008;42.664;23.372;2024-02-14T06:29:57;21.13;;;14.53;;
6135;SDS011;24008;42.664;23.372;2024-02-14T06:32:24;23.53;;;14.90;;
6135;SDS011;24008;42.664;23.372;2024-02-14T06:34:51;23.80;;;14.00;;
6135;SDS011;24008;42.664;23.372;2024-02-14T06:37:18;22.17;;;14.53;;
6135;SDS011;24008;42.664;23.372;2024-02-14T06:39:46;20.63;;;13.20;;
6135;SDS011;24008;42.664;23.372;2024-02-14T06:42:15;23.60;;;14.50;;
6135;SDS011;24008;42.664;23.372;2024-02-14T06:44:44;23.03;;;14.87;;
6135;SDS011;24008;42.664;23.372;2024-02-14T06:47:10;25.70;;;15.90;;
6135;SDS011;24008;42.664;23.372;2024-02-14T06:49:37;21.20;;;14.77;;
6135;SDS011;24008;42.664;23.372;2024-02-14T06:52:04;23.27;;;14.87;;
6135;SDS011;24008;42.664;23.372;2024-02-14T06:54:31;24.60;;;16.27;;
6135;SDS011;24008;42.664;23.372;2024-02-14T06:56:58;19.57;;;13.13;;
6135;SDS011;24008;42.664;23.372;2024-02-14T06:59:27;20.97;;;13.20;;
6135;SDS011;24008;42.664;23.372;2024-02-14T07:01:54;21.03;;;13.77;;
6135;SDS011;24008;42.664;23.372;2024-02-14T07:04:20;20.93;;;14.00;;
6135;SDS011;24008;42.664;23.372;2024-02-14T07:06:50;19.80;;;13.63;;
6135;SDS011;24008;42.664;23.372;2024-02-14T07:09:18;20.00;;;13.67;;
6135;SDS011;24008;42.664;23.372;2024-02-14T07:11:44;22.43;;;13.40;;
6135;SDS011;24008;42.664;23.372;2024-02-14T07:14:11;21.50;;;12.80;;
6135;SDS011;24008;42.664;23.372;2024-02-14T07:16:40;19.03;;;12.53;;
6135;SDS011;24008;42.664;23.372;2024-02-14T07:19:06;19.20;;;12.77;;
6135;SDS011;24008;42.664;23.372;2024-02-14T07:21:33;21.67;;;12.27;;
6135;SDS011;24008;42.664;23.372;2024-02-14T07:24:00;20.73;;;12.10;;
6135;SDS011;24008;42.664;23.372;2024-02-14T07:26:26;17.27;;;11.60;;
6135;SDS011;24008;42.664;23.372;2024-02-14T07:28:53;21.13;;;12.80;;
6135;SDS011;24008;42.664;23.372;2024-02-14T07:31:20;16.03;;;11.47;;
6135;SDS011;24008;42.664;23.372;2024-02-14T07:33:48;18.70;;;11.77;;
6135;SDS011;24008;42.664;23.372;2024-02-14T07:36:18;20.43;;;12.40;;
6135;SDS011;24008;42.664;23.372;2024-02-14T07:38:45;16.43;;;11.70;;
6135;SDS011;24008;42.664;23.372;2024-02-14T07:41:12;17.13;;;11.63;;
6135;SDS011;24008;42.664;23.372;2024-02-14T07:43:38;16.77;;;11.33;;
6135;SDS011;24008;42.664;23.372;2024-02-14T07:46:05;17.23;;;11.20;;
6135;SDS011;24008;42.664;23.372;2024-02-14T07:48:32;18.07;;;10.90;;
6135;SDS011;24008;42.664;23.372;2024-02-14T07:51:00;15.27;;;10.87;;
6135;SDS011;24008;42.664;23.372;2024-02-14T07:53:27;15.97;;;11.33;;
6135;SDS011;24008;42.664;23.372;2024-02-14T07:55:53;15.30;;;11.10;;
6135;SDS011;24008;42.664;23.372;2024-02-14T07:58:20;16.80;;;11.50;;
6135;SDS011;24008;42.664;23.372;2024-02-14T08:00:47;19.20;;;10.90;;
6135;SDS011;24008;42.664;23.372;2024-02-14T08:03:14;18.63;;;12.57;;
6135;SDS011;24008;42.664;23.372;2024-02-14T08:05:40;16.40;;;11.10;;
6135;SDS011;24008;42.664;23.372;2024-02-14T08:08:09;17.13;;;10.83;;
6135;SDS011;24008;42.664;23.372;2024-02-14T08:10:35;16.40;;;10.87;;
6135;SDS011;24008;42.664;23.372;2024-02-14T08:13:02;15.33;;;11.23;;
6135;SDS011;24008;42.664;23.372;2024-02-14T08:15:30;17.80;;;10.93;;
6135;SDS011;24008;42.664;23.372;2024-02-14T08:17:57;17.10;;;11.47;;
6135;SDS011;24008;42.664;23.372;2024-02-14T08:20:24;16.17;;;11.60;;
6135;SDS011;24008;42.664;23.372;2024-02-14T08:22:52;17.97;;;11.47;;
6135;SDS011;24008;42.664;23.372;2024-02-14T08:25:20;17.43;;;10.90;;
6135;SDS011;24008;42.664;23.372;2024-02-14T08:27:47;15.57;;;10.90;;
6135;SDS011;24008;42.664;23.372;2024-02-14T08:30:14;16.47;;;11.60;;
6135;SDS011;24008;42.664;23.372;2024-02-14T08:32:47;19.23;;;11.40;;
6135;SDS011;24008;42.664;23.372;2024-02-14T08:35:14;15.80;;;10.60;;
6135;SDS011;24008;42.664;23.372;2024-02-14T08:37:41;16.97;;;10.87;;
6135;SDS011;24008;42.664;23.372;2024-02-14T08:40:08;17.90;;;11.80;;
6135;SDS011;24008;42.664;23.372;2024-02-14T08:42:38;16.10;;;11.13;;
6135;SDS011;24008;42.664;23.372;2024-02-14T08:45:05;18.93;;;12.27;;
6135;SDS011;24008;42.664;23.372;2024-02-14T08:47:33;18.27;;;11.63;;
6135;SDS011;24008;42.664;23.372;2024-02-14T08:50:00;20.07;;;11.67;;
6135;SDS011;24008;42.664;23.372;2024-02-14T08:52:31;14.23;;;10.03;;
6135;SDS011;24008;42.664;23.372;2024-02-14T08:55:01;15.17;;;10.63;;
6135;SDS011;24008;42.664;23.372;2024-02-14T08:57:28;14.53;;;10.03;;
6135;SDS011;24008;42.664;23.372;2024-02-14T08:59:57;17.03;;;10.50;;
6135;SDS011;24008;42.664;23.372;2024-02-14T09:02:25;16.50;;;10.20;;
6135;SDS011;24008;42.664;23.372;2024-02-14T09:04:52;13.93;;;10.57;;
6135;SDS011;24008;42.664;23.372;2024-02-14T09:07:19;13.67;;;10.17;;
6135;SDS011;24008;42.664;23.372;2024-02-14T09:09:45;14.00;;;10.40;;
6135;SDS011;24008;42.664;23.372;2024-02-14T09:12:12;16.20;;;11.10;;
6135;SDS011;24008;42.664;23.372;2024-02-14T09:14:39;16.30;;;10.60;;
6135;SDS011;24008;42.664;23.372;2024-02-14T09:17:07;15.10;;;10.50;;
6135;SDS011;24008;42.664;23.372;2024-02-14T09:19:35;18.97;;;11.20;;
6135;SDS011;24008;42.664;23.372;2024-02-14T09:22:02;17.53;;;11.37;;
6135;SDS011;24008;42.664;23.372;2024-02-14T09:24:31;15.87;;;10.97;;
6135;SDS011;24008;42.664;23.372;2024-02-14T09:26:58;18.07;;;11.50;;
6135;SDS011;24008;42.664;23.372;2024-02-14T09:29:27;14.67;;;10.07;;
6135;SDS011;24008;42.664;23.372;2024-02-14T09:31:54;15.00;;;10.53;;
6135;SDS011;24008;42.664;23.372;2024-02-14T09:34:22;15.63;;;10.60;;
6135;SDS011;24008;42.664;23.372;2024-02-14T09:36:50;16.20;;;11.33;;
6135;SDS011;24008;42.664;23.372;2024-02-14T09:39:18;16.17;;;10.73;;
6135;SDS011;24008;42.664;23.372;2024-02-14T09:41:46;15.57;;;11.23;;
6135;SDS011;24008;42.664;23.372;2024-02-14T09:44:17;17.60;;;11.53;;
6135;SDS011;24008;42.664;23.372;2024-02-14T09:46:44;16.03;;;10.90;;
6135;SDS011;24008;42.664;23.372;2024-02-14T09:49:12;15.57;;;10.63;;
6135;SDS011;24008;42.664;23.372;2024-02-14T09:51:45;16.83;;;11.30;;
6135;SDS011;24008;42.664;23.372;2024-02-14T09:54:14;15.27;;;10.63;;
6135;SDS011;24008;42.664;23.372;2024-02-14T09:56:42;16.13;;;10.37;;
6135;SDS011;24008;42.664;23.372;2024-02-14T09:59:15;13.93;;;10.57;;
6135;SDS011;24008;42.664;23.372;2024-02-14T10:01:43;15.27;;;10.83;;
6135;SDS011;24008;42.664;23.372;2024-02-14T10:04:11;19.27;;;11.57;;
6135;SDS011;24008;42.664;23.372;2024-02-14T10:06:38;16.43;;;10.80;;
6135;SDS011;24008;42.664;23.372;2024-02-14T10:09:06;15.63;;;11.57;;
6135;SDS011;24008;42.664;23.372;2024-02-14T10:11:35;15.53;;;10.57;;
6135;SDS011;24008;42.664;23.372;2024-02-14T10:14:04;17.27;;;11.43;;
6135;SDS011;24008;42.664;23.372;2024-02-14T10:16:34;14.60;;;10.13;;
6135;SDS011;24008;42.664;23.372;2024-02-14T10:19:01;16.80;;;11.20;;
6135;SDS011;24008;42.664;23.372;2024-02-14T10:21:29;17.50;;;10.53;;
6135;SDS011;24008;42.664;23.372;2024-02-14T10:23:59;14.40;;;9.60;;
6135;SDS011;24008;42.664;23.372;2024-02-14T10:26:27;12.43;;;9.27;;
6135;SDS011;24008;42.664;23.372;2024-02-14T10:28:56;14.43;;;9.67;;
6135;SDS011;24008;42.664;23.372;2024-02-14T10:31:23;14.30;;;9.20;;
6135;SDS011;24008;42.664;23.372;2024-02-14T10:33:51;16.03;;;10.13;;
6135;SDS011;24008;42.664;23.372;2024-02-14T10:36:18;15.13;;;10.30;;
6135;SDS011;24008;42.664;23.372;2024-02-14T10:38:46;13.77;;;9.50;;
6135;SDS011;24008;42.664;23.372;2024-02-14T10:41:15;13.33;;;9.07;;
6135;SDS011;24008;42.664;23.372;2024-02-14T10:43:43;13.20;;;9.70;;
6135;SDS011;24008;42.664;23.372;2024-02-14T10:46:12;14.13;;;9.90;;
6135;SDS011;24008;42.664;23.372;2024-02-14T10:48:45;14.50;;;9.53;;
6135;SDS011;24008;42.664;23.372;2024-02-14T10:51:12;14.07;;;9.53;;
6135;SDS011;24008;42.664;23.372;2024-02-14T10:53:41;14.47;;;9.37;;
6135;SDS011;24008;42.664;23.372;2024-02-14T10:56:12;16.90;;;9.73;;
6135;SDS011;24008;42.664;23.372;2024-02-14T10:58:44;16.23;;;9.43;;
6135;SDS011;24008;42.664;23.372;2024-02-14T11:01:13;15.17;;;9.53;;
6135;SDS011;24008;42.664;23.372;2024-02-14T11:03:41;14.40;;;9.70;;
6135;SDS011;24008;42.664;23.372;2024-02-14T11:06:14;13.80;;;9.30;;
6135;SDS011;24008;42.664;23.372;2024-02-14T11:08:42;15.13;;;10.03;;
6135;SDS011;24008;42.664;23.372;2024-02-14T11:11:08;13.70;;;9.30;;
6135;SDS011;24008;42.664;23.372;2024-02-14T11:13:38;13.77;;;9.97;;
6135;SDS011;24008;42.664;23.372;2024-02-14T11:16:09;13.97;;;9.63;;
6135;SDS011;24008;42.664;23.372;2024-02-14T11:18:36;14.47;;;10.37;;
6135;SDS011;24008;42.664;23.372;2024-02-14T11:21:15;14.20;;;10.13;;
6135;SDS011;24008;42.664;23.372;2024-02-14T11:23:52;14.57;;;9.27;;
6135;SDS011;24008;42.664;23.372;2024-02-14T11:26:19;14.73;;;10.23;;
6135;SDS011;24008;42.664;23.372;2024-02-14T11:28:48;14.30;;;9.83;;
6135;SDS011;24008;42.664;23.372;2024-02-14T11:31:17;15.50;;;9.70;;
6135;SDS011;24008;42.664;23.372;2024-02-14T11:33:44;14.07;;;10.17;;
6135;SDS011;24008;42.664;23.372;2024-02-14T11:36:14;15.87;;;9.53;;
6135;SDS011;24008;42.664;23.372;2024-02-14T11:38:42;13.97;;;9.43;;
6135;SDS011;24008;42.664;23.372;2024-02-14T11:41:10;14.07;;;9.57;;
6135;SDS011;24008;42.664;23.372;2024-02-14T11:43:37;12.60;;;8.60;;
6135;SDS011;24008;42.664;23.372;2024-02-14T11:46:04;13.20;;;9.37;;
6135;SDS011;24008;42.664;23.372;2024-02-14T11:48:32;16.10;;;10.30;;
6135;SDS011;24008;42.664;23.372;2024-02-14T11:51:00;14.27;;;10.03;;
6135;SDS011;24008;42.664;23.372;2024-02-14T11:53:26;13.67;;;9.53;;
6135;SDS011;24008;42.664;23.372;2024-02-14T11:55:55;17.67;;;10.00;;
6135;SDS011;24008;42.664;23.372;2024-02-14T11:58:22;14.03;;;9.83;;
6135;SDS011;24008;42.664;23.372;2024-02-14T12:00:48;13.53;;;9.47;;
6135;SDS011;24008;42.664;23.372;2024-02-14T12:03:16;19.03;;;9.67;;
6135;SDS011;24008;42.664;23.372;2024-02-14T12:05:46;13.57;;;9.80;;
6135;SDS011;24008;42.664;23.372;2024-02-14T12:08:14;15.43;;;10.50;;
6135;SDS011;24008;42.664;23.372;2024-02-14T12:10:42;15.87;;;10.43;;
6135;SDS011;24008;42.664;23.372;2024-02-14T12:13:12;16.63;;;9.90;;
6135;SDS011;24008;42.664;23.372;2024-02-14T12:15:39;16.23;;;10.67;;
6135;SDS011;24008;42.664;23.372;2024-02-14T12:18:07;15.13;;;10.40;;
6135;SDS011;24008;42.664;23.372;2024-02-14T12:20:35;13.50;;;10.03;;
6135;SDS011;24008;42.664;23.372;2024-02-14T12:23:04;14.23;;;9.60;;
6135;SDS011;24008;42.664;23.372;2024-02-14T12:25:31;16.73;;;9.40;;
6135;SDS011;24008;42.664;23.372;2024-02-14T12:27:59;15.87;;;10.67;;
6135;SDS011;24008;42.664;23.372;2024-02-14T12:30:28;12.17;;;9.13;;
6135;SDS011;24008;42.664;23.372;2024-02-14T12:33:10;15.13;;;9.70;;
6135;SDS011;24008;42.664;23.372;2024-02-14T12:35:39;12.90;;;9.57;;
6135;SDS011;24008;42.664;23.372;2024-02-14T12:38:10;14.23;;;9.03;;
6135;SDS011;24008;42.664;23.372;2024-02-14T12:40:38;13.87;;;9.30;;
6135;SDS011;24008;42.664;23.372;2024-02-14T12:43:06;16.27;;;10.13;;
6135;SDS011;24008;42.664;23.372;2024-02-14T12:45:33;13.20;;;9.50;;
6135;SDS011;24008;42.664;23.372;2024-02-14T12:48:00;13.53;;;8.50;;
6135;SDS011;24008;42.664;23.372;2024-02-14T12:50:27;12.93;;;9.23;;
6135;SDS011;24008;42.664;23.372;2024-02-14T12:52:53;18.00;;;9.70;;
6135;SDS011;24008;42.664;23.372;2024-02-14T12:55:22;14.50;;;9.70;;
6135;SDS011;24008;42.664;23.372;2024-02-14T12:57:50;17.17;;;9.47;;
6135;SDS011;24008;42.664;23.372;2024-02-14T13:00:17;19.43;;;9.57;;
6135;SDS011;24008;42.664;23.372;2024-02-14T13:02:44;16.20;;;9.80;;
6135;SDS011;24008;42.664;23.372;2024-02-14T13:05:11;14.70;;;10.30;;
6135;SDS011;24008;42.664;23.372;2024-02-14T13:07:38;16.07;;;10.70;;
6135;SDS011;24008;42.664;23.372;2024-02-14T13:10:05;19.33;;;10.07;;
6135;SDS011;24008;42.664;23.372;2024-02-14T13:12:34;14.03;;;9.33;;
6135;SDS011;24008;42.664;23.372;2024-02-14T13:15:02;13.70;;;9.50;;
6135;SDS011;24008;42.664;23.372;2024-02-14T13:17:29;16.67;;;8.97;;
6135;SDS011;24008;42.664;23.372;2024-02-14T13:19:56;14.07;;;9.43;;
6135;SDS011;24008;42.664;23.372;2024-02-14T13:22:24;14.27;;;10.03;;
6135;SDS011;24008;42.664;23.372;2024-02-14T13:24:51;13.10;;;8.83;;
6135;SDS011;24008;42.664;23.372;2024-02-14T13:27:18;13.07;;;9.03;;
6135;SDS011;24008;42.664;23.372;2024-02-14T13:29:47;13.03;;;9.50;;
6135;SDS011;24008;42.664;23.372;2024-02-14T13:32:15;14.00;;;9.47;;
6135;SDS011;24008;42.664;23.372;2024-02-14T13:34:42;12.77;;;8.50;;
6135;SDS011;24008;42.664;23.372;2024-02-14T13:37:08;14.50;;;8.67;;
6135;SDS011;24008;42.664;23.372;2024-02-14T13:39:35;13.97;;;8.93;;
6135;SDS011;24008;42.664;23.372;2024-02-14T13:42:02;13.63;;;8.63;;
6135;SDS011;24008;42.664;23.372;2024-02-14T13:44:30;15.87;;;9.33;;
6135;SDS011;24008;42.664;23.372;2024-02-14T13:46:58;12.43;;;8.70;;
6135;SDS011;24008;42.664;23.372;2024-02-14T13:49:24;14.53;;;9.83;;
6135;SDS011;24008;42.664;23.372;2024-02-14T13:51:53;13.13;;;9.17;;
6135;SDS011;24008;42.664;23.372;2024-02-14T13:54:21;13.50;;;8.97;;
6135;SDS011;24008;42.664;23.372;2024-02-14T13:56:49;13.83;;;8.80;;
6135;SDS011;24008;42.664;23.372;2024-02-14T13:59:16;12.87;;;9.13;;
6135;SDS011;24008;42.664;23.372;2024-02-14T14:01:43;15.07;;;9.20;;
6135;SDS011;24008;42.664;23.372;2024-02-14T14:04:12;13.80;;;8.93;;
6135;SDS011;24008;42.664;23.372;2024-02-14T14:06:39;16.67;;;9.63;;
6135;SDS011;24008;42.664;23.372;2024-02-14T14:09:06;12.63;;;8.60;;
6135;SDS011;24008;42.664;23.372;2024-02-14T14:11:34;14.40;;;9.00;;
6135;SDS011;24008;42.664;23.372;2024-02-14T14:14:05;13.37;;;9.70;;
6135;SDS011;24008;42.664;23.372;2024-02-14T14:16:33;14.77;;;9.23;;
6135;SDS011;24008;42.664;23.372;2024-02-14T14:19:00;15.33;;;9.03;;
6135;SDS011;24008;42.664;23.372;2024-02-14T14:21:29;15.00;;;10.00;;
6135;SDS011;24008;42.664;23.372;2024-02-14T14:23:56;14.07;;;9.33;;
6135;SDS011;24008;42.664;23.372;2024-02-14T14:26:25;14.33;;;9.27;;
6135;SDS011;24008;42.664;23.372;2024-02-14T14:29:21;14.47;;;9.23;;
6135;SDS011;24008;42.664;23.372;2024-02-14T14:31:55;15.20;;;9.10;;